Terminal Aerodrome Forecast
Issued by NWS Wilmington, NC

Home | Current Version | Previous Version | Text Only | Print | Product List | Glossary On
Versions: 1 2 3 4 5 6 7 8 9 10 11 12 13 14 15 16 17 18
000
FTUS42 KILM 051120
TAFLBT
TAF
KLBT 051120Z 0512/0612 02005KT 6SM BR SCT005 BKN025
      TEMPO 0512/0514 4SM BR BKN012
     FM051400 04009KT P6SM BKN060
     FM051900 05010KT P6SM VCTS SCT045CB BKN060
     FM060000 05005KT P6SM BKN250=

USA.gov is the U.S. government's official web portal to all federal, state and local government web resources and services.